Time;durP1;ratioP1;P1;durP2;ratioP2;P2;SDS_P1;SDS_P2;PMS_P1;PMS_P2;Temp;Humidity;BMP_temperature;BMP_pressure;BME280_temperature;BME280_humidity;BME280_pressure;Samples;Min_cycle;Max_cycle;Signal;HPM_P1;HPM_P2
2023/01/02 00:01:14;;;;;;;209.60;148.27;;;6.00;99.90;;;;;;4993724;28;20497;-72
2023/01/02 00:03:40;;;;;;;200.65;143.63;;;6.00;99.90;;;;;;4994389;28;20042;-71
2023/01/02 00:06:06;;;;;;;208.32;147.48;;;6.00;99.90;;;;;;4994150;28;20023;-73
2023/01/02 00:08:32;;;;;;;246.43;179.02;;;6.00;99.90;;;;;;4992093;28;20478;-74
2023/01/02 00:10:58;;;;;;;235.93;169.70;;;5.90;99.90;;;;;;4993813;28;20029;-73
2023/01/02 00:13:24;;;;;;;235.20;170.77;;;5.90;99.90;;;;;;4994205;28;20030;-73
2023/01/02 00:15:51;;;;;;;216.68;157.85;;;6.00;99.90;;;;;;4994107;28;20026;-72
2023/01/02 00:18:17;;;;;;;235.88;171.15;;;6.00;99.90;;;;;;4993971;28;20022;-72
2023/01/02 00:20:42;;;;;;;246.20;178.70;;;6.00;99.90;;;;;;4993855;28;20026;-73
2023/01/02 00:23:08;;;;;;;206.95;150.23;;;6.00;99.90;;;;;;4985117;28;20402;-72
2023/01/02 00:25:34;;;;;;;204.35;152.25;;;6.10;99.90;;;;;;4989957;28;20440;-74
2023/01/02 00:28:00;;;;;;;230.40;161.40;;;6.00;99.90;;;;;;4994132;28;20038;-73
2023/01/02 00:30:26;;;;;;;228.73;165.15;;;6.00;99.90;;;;;;4993842;28;20037;-75
2023/01/02 00:32:52;;;;;;;215.23;154.35;;;6.00;99.90;;;;;;4993812;28;20030;-74
2023/01/02 00:35:18;;;;;;;226.95;165.52;;;6.00;99.90;;;;;;4993525;28;20046;-74
2023/01/02 00:37:44;;;;;;;229.50;161.70;;;5.90;99.90;;;;;;4993941;28;20026;-73
2023/01/02 00:40:12;;;;;;;225.98;165.35;;;5.90;99.90;;;;;;4991964;28;20018;-73
2023/01/02 00:42:41;;;;;;;220.88;162.70;;;6.00;99.90;;;;;;4978418;28;20034;-73
2023/01/02 00:45:09;;;;;;;209.00;150.80;;;5.80;99.90;;;;;;4974204;28;20023;-73
2023/01/02 00:47:35;;;;;;;227.65;157.57;;;5.90;99.90;;;;;;4973945;28;20023;-74
2023/01/02 00:50:01;;;;;;;209.82;146.45;;;5.90;99.90;;;;;;4974232;28;20106;-73
2023/01/02 00:52:27;;;;;;;209.57;148.43;;;5.90;99.90;;;;;;4973954;28;20027;-72
2023/01/02 00:54:52;;;;;;;215.18;154.45;;;5.90;99.90;;;;;;4980219;28;20025;-74
2023/01/02 00:57:18;;;;;;;204.57;145.57;;;5.90;99.90;;;;;;4983441;28;20451;-74
2023/01/02 00:59:44;;;;;;;202.45;146.35;;;5.80;99.90;;;;;;4986267;28;20393;-74
2023/01/02 01:02:10;;;;;;;203.32;145.05;;;5.80;99.90;;;;;;4977637;28;20038;-73
2023/01/02 01:04:37;;;;;;;195.63;144.43;;;5.80;99.90;;;;;;4968274;28;20073;-73
2023/01/02 01:07:03;;;;;;;206.88;150.85;;;5.80;99.90;;;;;;4987019;28;20019;-73
2023/01/02 01:09:29;;;;;;;215.68;157.88;;;5.80;99.90;;;;;;4993494;28;20027;-73
2023/01/02 01:11:54;;;;;;;207.85;150.85;;;5.70;99.90;;;;;;4993430;28;20113;-72
2023/01/02 01:14:21;;;;;;;214.57;152.98;;;5.70;99.90;;;;;;4993699;28;20030;-72
2023/01/02 01:16:46;;;;;;;225.15;160.43;;;5.70;99.90;;;;;;4988847;28;20037;-73
2023/01/02 01:19:13;;;;;;;258.60;185.88;;;5.60;99.90;;;;;;4988438;28;20019;-73
2023/01/02 01:21:38;;;;;;;263.05;189.65;;;5.50;99.90;;;;;;4991404;28;20046;-73
2023/01/02 01:24:04;;;;;;;241.55;175.30;;;5.50;99.90;;;;;;4997284;28;20609;-72
2023/01/02 01:26:30;;;;;;;240.48;176.95;;;5.60;99.90;;;;;;4996621;28;20034;-72
2023/01/02 01:28:56;;;;;;;218.68;156.32;;;5.60;99.90;;;;;;4997478;28;20105;-73
2023/01/02 01:31:22;;;;;;;232.55;168.38;;;5.60;99.90;;;;;;4979419;28;20062;-73
2023/01/02 01:33:49;;;;;;;226.35;165.02;;;5.60;99.90;;;;;;4997245;28;20031;-73
2023/01/02 01:36:18;;;;;;;208.32;145.27;;;5.60;99.90;;;;;;4996744;28;20037;-73
2023/01/02 01:38:45;;;;;;;222.80;161.02;;;5.50;99.90;;;;;;4996903;28;20092;-74
2023/01/02 01:41:13;;;;;;;241.18;176.13;;;5.50;99.90;;;;;;4996941;28;20038;-74
2023/01/02 01:43:56;;;;;;;261.98;185.73;;;5.40;99.90;;;;;;4997109;28;20388;-74
2023/01/02 01:46:40;;;;;;;243.98;176.88;;;5.50;99.90;;;;;;4987165;28;20027;-73
2023/01/02 01:49:25;;;;;;;266.30;190.80;;;5.50;99.90;;;;;;4996815;28;20085;-73
2023/01/02 01:51:53;;;;;;;211.18;150.63;;;5.50;99.90;;;;;;4991976;28;20029;-73
2023/01/02 01:54:24;;;;;;;221.25;161.68;;;5.60;99.90;;;;;;4977800;28;20023;-74
2023/01/02 01:56:54;;;;;;;242.85;169.88;;;5.50;99.90;;;;;;4993640;28;20026;-74
2023/01/02 01:59:20;;;;;;;225.23;160.68;;;5.50;99.90;;;;;;4987164;28;20113;-73
2023/01/02 02:01:48;;;;;;;203.43;148.07;;;5.40;99.90;;;;;;4988233;28;20122;-74
2023/01/02 02:04:17;;;;;;;223.13;156.32;;;5.40;99.90;;;;;;4986597;28;20027;-74
2023/01/02 02:06:43;;;;;;;221.65;154.75;;;5.40;99.90;;;;;;4970911;28;20109;-73
2023/01/02 02:09:16;;;;;;;213.80;152.43;;;5.40;99.90;;;;;;4994250;28;20030;-73
2023/01/02 02:11:43;;;;;;;217.50;151.50;;;5.40;99.90;;;;;;4982798;28;20030;-74
2023/01/02 02:14:09;;;;;;;207.70;148.90;;;5.50;99.90;;;;;;4978210;28;20023;-73
2023/01/02 02:17:11;;;;;;;205.50;145.30;;;5.50;99.90;;;;;;4988244;28;20125;-74
2023/01/02 02:19:55;;;;;;;256.67;179.18;;;5.40;99.90;;;;;;4935441;29;20040;-74
2023/01/02 02:22:26;;;;;;;;;;;5.40;99.90;;;;;;4926288;29;20043;-73
2023/01/02 02:25:29;;;;;;;246.82;180.35;;;5.40;99.90;;;;;;4918292;29;20005;-73
2023/01/02 02:28:06;;;;;;;285.25;201.63;;;5.40;99.90;;;;;;4911165;29;20028;-73
2023/01/02 02:30:51;;;;;;;280.45;202.85;;;5.40;99.90;;;;;;4922092;29;20481;-73
2023/01/02 02:33:52;;;;;;;297.45;205.90;;;5.40;99.90;;;;;;4928656;29;20118;-71
2023/01/02 02:36:41;;;;;;;258.63;181.25;;;5.40;99.90;;;;;;4863437;29;20047;-73
2023/01/02 02:39:34;;;;;;;173.27;108.63;;;5.40;99.90;;;;;;4868377;29;20398;-74
2023/01/02 02:42:12;;;;;;;;;;;5.40;99.90;;;;;;4873450;29;20538;-73
2023/01/02 02:45:05;;;;;;;121.72;82.50;;;5.30;99.90;;;;;;4877859;29;20364;-72
2023/01/02 02:48:03;;;;;;;132.48;83.10;;;5.20;99.90;;;;;;4843683;29;20113;-73
2023/01/02 02:50:34;;;;;;;137.02;84.85;;;5.30;99.90;;;;;;4812584;29;20054;-72
2023/01/02 02:53:05;;;;;;;141.60;87.50;;;5.20;99.90;;;;;;4818753;29;20503;-73
2023/01/02 02:55:44;;;;;;;107.40;66.97;;;5.30;99.90;;;;;;4821386;29;20038;-72
2023/01/02 02:58:12;;;;;;;84.07;54.40;;;5.20;99.90;;;;;;4846740;29;20056;-73
2023/01/02 03:00:38;;;;;;;119.82;73.75;;;5.10;99.90;;;;;;4855477;29;20030;-73
2023/01/02 03:03:20;;;;;;;87.68;56.97;;;5.10;99.90;;;;;;4858124;29;20056;-73
2023/01/02 03:06:06;;;;;;;131.95;77.55;;;5.20;99.90;;;;;;4860326;29;20496;-74
2023/01/02 03:08:41;;;;;;;99.70;60.38;;;5.20;99.90;;;;;;4844984;29;20427;-72
2023/01/02 03:11:07;;;;;;;61.28;41.38;;;5.20;99.90;;;;;;4888675;29;20040;-74
2023/01/02 03:13:39;;;;;;;57.38;40.75;;;5.30;99.90;;;;;;4895029;29;20025;-73
2023/01/02 03:16:16;;;;;;;58.20;40.63;;;5.30;99.90;;;;;;4897291;29;20037;-73
2023/01/02 03:19:47;;;;;;;65.57;40.67;;;5.30;99.90;;;;;;4897565;29;20472;-73
2023/01/02 03:22:17;;;;;;;62.13;41.50;;;5.40;99.90;;;;;;4822740;29;20058;-73
2023/01/02 03:24:44;;;;;;;56.70;39.70;;;5.40;99.90;;;;;;4819171;29;20023;-73
2023/01/02 03:27:19;;;;;;;60.47;38.22;;;5.50;99.90;;;;;;4825780;29;20491;-73
2023/01/02 03:30:00;;;;;;;54.97;38.78;;;5.50;99.90;;;;;;4841357;29;20407;-73
2023/01/02 03:32:36;;;;;;;59.88;39.75;;;5.50;99.90;;;;;;4841127;29;20053;-72
2023/01/02 03:35:08;;;;;;;60.97;39.38;;;5.60;99.90;;;;;;4814423;29;20160;-74
2023/01/02 03:37:39;;;;;;;51.88;35.65;;;5.60;99.90;;;;;;4816719;29;20042;-72
2023/01/02 03:40:11;;;;;;;56.03;36.80;;;5.60;99.90;;;;;;4814489;29;20047;-73
2023/01/02 03:42:44;;;;;;;49.15;36.00;;;5.60;99.90;;;;;;4814585;29;20054;-73
2023/01/02 03:45:17;;;;;;;53.88;40.03;;;5.70;99.90;;;;;;4814718;29;20038;-73
2023/01/02 03:48:08;;;;;;;62.78;41.60;;;5.60;99.90;;;;;;4814229;29;20035;-73
2023/01/02 03:50:51;;;;;;;77.07;49.38;;;5.70;99.90;;;;;;4814146;29;20038;-73
2023/01/02 03:53:17;;;;;;;67.72;44.97;;;5.70;99.90;;;;;;4816292;29;20087;-73
2023/01/02 03:55:56;;;;;;;67.85;45.65;;;5.70;99.90;;;;;;4840089;29;20045;-73
2023/01/02 03:58:37;;;;;;;60.85;44.30;;;5.70;99.90;;;;;;4908704;28;20046;-74
2023/01/02 04:01:08;;;;;;;69.63;47.65;;;5.70;99.90;;;;;;4974028;28;20555;-74
2023/01/02 04:03:47;;;;;;;87.03;50.53;;;5.60;99.90;;;;;;4974438;28;20041;-75
2023/01/02 04:06:15;;;;;;;103.53;60.13;;;5.60;99.90;;;;;;4974737;28;20033;-75
2023/01/02 04:08:55;;;;;;;80.15;53.30;;;5.60;99.90;;;;;;4974791;28;20102;-74
2023/01/02 04:11:22;;;;;;;74.68;49.30;;;5.60;99.90;;;;;;4974127;28;20075;-74
2023/01/02 04:13:56;;;;;;;132.50;77.22;;;5.60;99.90;;;;;;4974715;28;20023;-74
2023/01/02 04:16:28;;;;;;;113.50;67.53;;;5.50;99.90;;;;;;4973688;28;20041;-74
2023/01/02 04:19:02;;;;;;;81.25;57.33;;;5.50;99.90;;;;;;4974774;28;20114;-75
2023/01/02 04:21:31;;;;;;;78.25;56.97;;;5.50;99.90;;;;;;4981157;28;20058;-74
2023/01/02 04:24:17;;;;;;;73.45;50.53;;;5.50;99.90;;;;;;4994020;28;20028;-74
2023/01/02 04:26:57;;;;;;;84.88;59.10;;;5.40;99.90;;;;;;4993600;28;21563;-74
2023/01/02 04:29:23;;;;;;;84.32;57.97;;;5.40;99.90;;;;;;4993819;28;20034;-74
2023/01/02 04:32:12;;;;;;;80.78;57.42;;;5.40;99.90;;;;;;4992715;28;20076;-74
2023/01/02 04:34:41;;;;;;;85.70;62.10;;;5.30;99.90;;;;;;4993534;28;20046;-75
2023/01/02 04:37:07;;;;;;;71.35;53.70;;;5.30;99.90;;;;;;4993917;28;20025;-74
2023/01/02 04:39:34;;;;;;;69.30;48.00;;;5.40;99.90;;;;;;4993511;28;20034;-74
2023/01/02 04:42:00;;;;;;;63.33;45.80;;;5.30;99.90;;;;;;4993376;28;20077;-72
2023/01/02 04:44:26;;;;;;;71.63;52.95;;;5.20;99.90;;;;;;4992190;28;20030;-73
2023/01/02 04:46:51;;;;;;;64.70;46.53;;;5.20;99.90;;;;;;4993533;28;20030;-72
2023/01/02 04:49:17;;;;;;;65.32;44.22;;;5.30;99.90;;;;;;4993670;28;20109;-74
2023/01/02 04:51:43;;;;;;;60.13;44.30;;;5.20;99.90;;;;;;4993511;28;20097;-74
2023/01/02 04:54:11;;;;;;;58.90;43.35;;;5.20;99.90;;;;;;4992857;28;20429;-74
2023/01/02 04:56:36;;;;;;;57.20;43.80;;;5.20;99.90;;;;;;4989476;28;20027;-74
2023/01/02 04:59:02;;;;;;;61.75;45.08;;;5.20;99.90;;;;;;4993243;28;20233;-74
2023/01/02 05:01:28;;;;;;;66.78;48.17;;;5.30;99.90;;;;;;4993240;28;20367;-73
2023/01/02 05:03:54;;;;;;;65.30;45.20;;;5.20;99.90;;;;;;4992934;28;20030;-73
2023/01/02 05:06:19;;;;;;;64.38;46.17;;;5.20;99.90;;;;;;4993515;28;20061;-73
2023/01/02 05:08:45;;;;;;;52.67;39.00;;;5.30;99.90;;;;;;4992862;28;20034;-75
2023/01/02 05:11:17;;;;;;;64.25;44.55;;;5.20;99.90;;;;;;4993461;28;20034;-74
2023/01/02 05:13:43;;;;;;;59.60;45.40;;;5.10;99.90;;;;;;4993286;28;20018;-74
2023/01/02 05:16:10;;;;;;;59.63;45.05;;;5.00;99.90;;;;;;4993208;28;20022;-75
2023/01/02 05:18:35;;;;;;;54.85;39.70;;;5.00;99.90;;;;;;4991736;28;20026;-74
2023/01/02 05:23:47;;;;;;;57.60;42.40;;;5.00;99.90;;;;;;4993338;28;20045;-74
2023/01/02 05:23:52;;;;;;;63.58;44.72;;;5.00;99.90;;;;;;4993314;28;20018;-75
2023/01/02 05:26:18;;;;;;;62.20;45.35;;;5.00;99.90;;;;;;4986815;28;20023;-75
2023/01/02 05:28:44;;;;;;;65.57;46.50;;;5.00;99.90;;;;;;4992392;28;20373;-73
2023/01/02 05:31:10;;;;;;;120.13;86.05;;;5.00;99.90;;;;;;4993037;28;20546;-71
2023/01/02 05:33:36;;;;;;;192.45;123.95;;;5.10;99.90;;;;;;4993340;28;20478;-74
2023/01/02 05:36:05;;;;;;;156.35;102.53;;;5.10;99.90;;;;;;4993477;28;20041;-74
2023/01/02 05:38:32;;;;;;;125.47;90.13;;;5.00;99.90;;;;;;4992812;28;20031;-74
2023/01/02 05:41:02;;;;;;;119.72;86.07;;;5.00;99.90;;;;;;4993181;28;20022;-75
2023/01/02 05:43:33;;;;;;;101.65;73.25;;;5.00;99.90;;;;;;4993320;28;20037;-75
2023/01/02 05:46:19;;;;;;;100.03;68.90;;;5.00;99.90;;;;;;4992852;28;20105;-75
2023/01/02 05:48:45;;;;;;;91.22;64.72;;;5.10;99.90;;;;;;4993042;28;20041;-74
2023/01/02 05:51:14;;;;;;;88.28;64.25;;;5.00;99.90;;;;;;4992888;28;20022;-73
2023/01/02 05:53:41;;;;;;;76.30;57.67;;;5.00;99.90;;;;;;4992732;28;20537;-72
2023/01/02 05:56:10;;;;;;;76.82;57.38;;;5.00;99.90;;;;;;4992984;28;20039;-74
2023/01/02 05:58:37;;;;;;;80.70;57.25;;;5.00;99.90;;;;;;4992631;28;20385;-74
2023/01/02 06:01:11;;;;;;;75.35;55.83;;;5.00;99.90;;;;;;4992532;28;20482;-73
2023/01/02 06:03:37;;;;;;;74.38;54.03;;;5.10;99.90;;;;;;4980772;28;20039;-73
2023/01/02 06:06:05;;;;;;;79.38;53.95;;;5.10;99.90;;;;;;4991214;28;20374;-74
2023/01/02 06:08:32;;;;;;;100.82;71.90;;;5.10;99.90;;;;;;4987601;28;20023;-73
2023/01/02 06:10:58;;;;;;;84.57;63.58;;;5.10;99.90;;;;;;4979655;28;20489;-74
2023/01/02 06:13:24;;;;;;;80.57;58.08;;;5.20;99.90;;;;;;4987850;28;20486;-74
2023/01/02 06:15:50;;;;;;;85.80;61.67;;;5.20;99.90;;;;;;4988710;28;20089;-74
2023/01/02 06:18:16;;;;;;;85.55;61.70;;;5.20;99.90;;;;;;4983299;28;20462;-74
2023/01/02 06:20:42;;;;;;;82.05;60.83;;;5.20;99.90;;;;;;4979727;28;20035;-74
2023/01/02 06:23:07;;;;;;;83.68;61.42;;;5.20;99.90;;;;;;4993349;28;20041;-74
2023/01/02 06:25:34;;;;;;;82.40;61.00;;;5.20;99.90;;;;;;4996273;28;20024;-72
2023/01/02 06:27:59;;;;;;;70.95;53.13;;;5.20;99.90;;;;;;4988959;28;20022;-74
2023/01/02 06:30:25;;;;;;;75.75;51.42;;;5.20;99.90;;;;;;4978953;28;20078;-74
2023/01/02 06:32:51;;;;;;;74.75;56.05;;;5.20;99.90;;;;;;4986966;28;20835;-74
2023/01/02 06:35:17;;;;;;;73.60;54.22;;;5.10;99.90;;;;;;4964525;28;20055;-73
2023/01/02 06:37:43;;;;;;;98.45;67.95;;;5.20;99.90;;;;;;4975585;28;20065;-74
2023/01/02 06:40:10;;;;;;;82.53;60.22;;;5.20;99.90;;;;;;4983190;28;20471;-73
2023/01/02 06:42:36;;;;;;;90.82;60.00;;;5.20;99.90;;;;;;4993223;28;20038;-75
2023/01/02 06:45:02;;;;;;;108.45;73.03;;;5.10;99.90;;;;;;4983218;28;20029;-74
2023/01/02 06:47:28;;;;;;;96.28;66.20;;;5.10;99.90;;;;;;4987131;28;20533;-73
2023/01/02 06:49:53;;;;;;;107.18;75.43;;;5.10;99.90;;;;;;4995879;28;20101;-73
2023/01/02 06:52:19;;;;;;;99.85;70.53;;;5.20;99.90;;;;;;4986105;28;20022;-74
2023/01/02 06:54:45;;;;;;;94.28;69.28;;;5.30;99.90;;;;;;4994707;28;20022;-74
2023/01/02 06:57:11;;;;;;;118.68;82.20;;;5.30;99.90;;;;;;4990091;28;20034;-74
2023/01/02 06:59:37;;;;;;;108.25;76.10;;;5.20;99.90;;;;;;4983654;28;20027;-73
2023/01/02 07:02:02;;;;;;;114.20;76.93;;;5.20;99.90;;;;;;4978909;28;20397;-73
2023/01/02 07:04:28;;;;;;;108.25;79.72;;;5.20;99.90;;;;;;4980949;28;20030;-73
2023/01/02 07:06:55;;;;;;;112.03;81.43;;;5.20;99.90;;;;;;4986328;28;20023;-73
2023/01/02 07:09:20;;;;;;;108.78;73.72;;;5.20;99.90;;;;;;4980359;28;20023;-73
2023/01/02 07:11:46;;;;;;;103.10;78.00;;;5.20;99.90;;;;;;4990951;28;20030;-73
2023/01/02 07:14:12;;;;;;;108.63;81.15;;;5.20;99.90;;;;;;4988466;28;20021;-73
2023/01/02 07:16:38;;;;;;;123.30;84.32;;;5.30;99.90;;;;;;4983119;28;20421;-73
2023/01/02 07:19:04;;;;;;;126.50;82.35;;;5.30;99.90;;;;;;4975332;28;20034;-73
2023/01/02 07:21:30;;;;;;;139.88;87.97;;;5.30;99.90;;;;;;4982203;28;20054;-72
2023/01/02 07:23:55;;;;;;;167.05;103.25;;;5.30;99.90;;;;;;4994626;28;20014;-72
2023/01/02 07:26:21;;;;;;;150.18;97.45;;;5.40;99.90;;;;;;4994540;28;20034;-72
2023/01/02 07:28:47;;;;;;;130.93;86.72;;;5.50;99.90;;;;;;4994585;28;20022;-72
2023/01/02 07:31:15;;;;;;;130.50;84.53;;;5.60;99.90;;;;;;4994524;28;20109;-72
2023/01/02 07:33:42;;;;;;;122.10;82.40;;;5.70;99.90;;;;;;4994731;28;20437;-72
2023/01/02 07:36:11;;;;;;;127.32;84.30;;;5.80;99.90;;;;;;4997562;28;20061;-72
2023/01/02 07:38:38;;;;;;;126.25;87.25;;;5.90;99.90;;;;;;5004665;28;20367;-71
2023/01/02 07:41:15;;;;;;;147.00;106.25;;;6.00;99.90;;;;;;5004842;28;20036;-72
2023/01/02 07:43:42;;;;;;;144.30;103.60;;;6.10;99.90;;;;;;5003299;28;20034;-71
2023/01/02 07:46:08;;;;;;;160.57;114.88;;;6.20;99.90;;;;;;5000866;28;20101;-72
2023/01/02 07:48:34;;;;;;;180.50;135.13;;;6.30;99.90;;;;;;5004526;28;20105;-73
2023/01/02 07:51:01;;;;;;;146.68;107.10;;;6.20;99.90;;;;;;5005197;28;20026;-73
2023/01/02 07:53:27;;;;;;;121.53;84.80;;;6.00;99.90;;;;;;5003631;28;20034;-72
2023/01/02 07:55:56;;;;;;;95.20;70.53;;;6.00;99.90;;;;;;5003455;28;20026;-72
2023/01/02 07:58:22;;;;;;;115.10;88.03;;;6.10;99.90;;;;;;4994330;28;20468;-72
2023/01/02 08:00:48;;;;;;;119.38;87.85;;;6.20;99.90;;;;;;4993851;28;20080;-72
2023/01/02 08:03:14;;;;;;;123.78;93.40;;;6.20;99.90;;;;;;4993854;28;20045;-72
2023/01/02 08:05:40;;;;;;;107.78;77.20;;;6.30;99.90;;;;;;4993528;28;20066;-72
2023/01/02 08:08:06;;;;;;;97.43;71.78;;;6.50;99.90;;;;;;4993719;28;20034;-71
2023/01/02 08:10:32;;;;;;;91.72;67.68;;;6.70;99.90;;;;;;5002690;28;20022;-71
2023/01/02 08:12:57;;;;;;;85.35;63.92;;;6.80;99.90;;;;;;5003805;28;20079;-71
2023/01/02 08:15:24;;;;;;;92.32;62.70;;;7.00;99.90;;;;;;5003966;28;20026;-72
2023/01/02 08:17:50;;;;;;;97.47;67.53;;;7.20;99.90;;;;;;5002584;28;20113;-71
2023/01/02 08:20:16;;;;;;;98.03;66.95;;;7.30;99.90;;;;;;5004103;28;20381;-72
2023/01/02 08:22:44;;;;;;;89.22;61.55;;;7.60;99.90;;;;;;4997337;28;20058;-72
2023/01/02 08:25:10;;;;;;;102.55;62.53;;;7.80;99.90;;;;;;4993645;28;20398;-72
2023/01/02 08:27:35;;;;;;;83.85;61.45;;;7.90;99.90;;;;;;4987729;28;20026;-72
2023/01/02 08:30:02;;;;;;;92.75;67.53;;;8.10;99.90;;;;;;4993273;28;20022;-72
2023/01/02 08:32:28;;;;;;;103.22;68.82;;;8.20;99.90;;;;;;4991021;28;20026;-72
2023/01/02 08:34:54;;;;;;;99.25;69.65;;;8.30;99.90;;;;;;5001664;28;20036;-72
2023/01/02 08:37:20;;;;;;;92.07;68.40;;;8.50;99.90;;;;;;4996747;28;20109;-73
2023/01/02 08:39:45;;;;;;;102.90;73.70;;;8.50;99.90;;;;;;4993747;28;20026;-72
2023/01/02 08:42:11;;;;;;;112.30;78.75;;;8.60;99.90;;;;;;4992850;28;20042;-72
2023/01/02 08:44:37;;;;;;;85.47;63.15;;;8.60;99.90;;;;;;4992949;28;20038;-72
2023/01/02 08:47:04;;;;;;;89.15;56.85;;;8.50;99.90;;;;;;4993569;28;20030;-73
2023/01/02 08:49:30;;;;;;;85.10;55.63;;;8.60;99.90;;;;;;4993512;28;20113;-72
2023/01/02 08:51:55;;;;;;;67.88;49.40;;;8.50;99.90;;;;;;4993421;28;20057;-72
2023/01/02 08:54:21;;;;;;;62.85;48.78;;;8.70;99.90;;;;;;4992586;28;20051;-73
2023/01/02 08:56:47;;;;;;;72.38;54.40;;;8.60;99.90;;;;;;4993611;28;20022;-73
2023/01/02 08:59:13;;;;;;;69.72;51.10;;;8.80;99.90;;;;;;4993224;28;20398;-73
2023/01/02 09:01:39;;;;;;;66.05;50.35;;;8.90;99.90;;;;;;5002677;28;20129;-73
2023/01/02 09:04:06;;;;;;;72.47;52.03;;;9.10;99.90;;;;;;4993399;28;20053;-73
2023/01/02 09:06:34;;;;;;;71.70;54.45;;;9.30;99.90;;;;;;4972809;28;20031;-72
2023/01/02 09:09:00;;;;;;;67.43;48.67;;;9.40;99.90;;;;;;4988716;28;20089;-73
2023/01/02 09:11:29;;;;;;;66.43;50.65;;;9.40;99.90;;;;;;4993186;28;20154;-73
2023/01/02 09:13:56;;;;;;;66.07;48.10;;;9.60;99.90;;;;;;4993285;28;20529;-73
2023/01/02 09:16:23;;;;;;;65.05;47.35;;;9.60;99.90;;;;;;4993537;28;20120;-73
2023/01/02 09:18:49;;;;;;;67.90;50.28;;;9.90;99.90;;;;;;4993445;28;20591;-73
2023/01/02 09:21:15;;;;;;;72.72;53.03;;;9.90;99.90;;;;;;4992371;28;20461;-72
2023/01/02 09:23:41;;;;;;;77.60;50.50;;;9.90;99.90;;;;;;5001757;28;20037;-74
2023/01/02 09:26:07;;;;;;;77.40;53.05;;;10.10;99.90;;;;;;4991897;28;20482;-72
2023/01/02 09:28:34;;;;;;;68.63;49.65;;;10.20;99.90;;;;;;4994963;28;20428;-73
2023/01/02 09:31:08;;;;;;;75.80;51.90;;;10.30;99.90;;;;;;5003604;28;20037;-73
2023/01/02 09:33:36;;;;;;;81.57;53.95;;;10.40;99.90;;;;;;5003696;28;20064;-73
2023/01/02 09:36:04;;;;;;;74.85;54.63;;;10.50;99.90;;;;;;5001976;28;20027;-73
2023/01/02 09:38:31;;;;;;;77.88;57.97;;;10.70;99.90;;;;;;5001684;28;20114;-73
2023/01/02 09:40:58;;;;;;;77.47;58.33;;;10.70;99.90;;;;;;5004878;28;20026;-73
2023/01/02 09:43:36;;;;;;;84.03;61.88;;;10.80;99.90;;;;;;5006885;28;20041;-73
2023/01/02 09:46:05;;;;;;;89.97;61.72;;;10.90;99.90;;;;;;5005339;28;20023;-73
2023/01/02 09:48:34;;;;;;;85.28;62.95;;;10.90;99.90;;;;;;5006049;28;20022;-73
2023/01/02 09:51:01;;;;;;;89.72;65.10;;;11.00;99.90;;;;;;5007317;28;20477;-73
2023/01/02 09:53:27;;;;;;;84.65;62.53;;;11.00;99.90;;;;;;5006050;28;20019;-73
2023/01/02 09:56:00;;;;;;;88.47;63.05;;;11.10;99.90;;;;;;4997936;28;20058;-74
2023/01/02 09:58:25;;;;;;;;;;;11.30;99.90;;;;;;4997255;28;20394;-73
2023/01/02 10:00:51;;;;;;;75.53;53.40;;;11.40;99.90;;;;;;4996521;28;19913;-73
2023/01/02 10:03:44;;;;;;;67.15;50.75;;;11.30;99.90;;;;;;4996569;28;20074;-73
2023/01/02 10:06:22;;;;;;;61.57;43.93;;;11.30;99.90;;;;;;4996669;28;20466;-74
2023/01/02 10:08:53;;;;;;;56.78;42.00;;;11.40;99.90;;;;;;4995791;28;20322;-73
2023/01/02 10:11:37;;;;;;;65.35;43.03;;;11.50;99.90;;;;;;4995457;28;20026;-73
2023/01/02 10:14:15;;;;;;;51.45;38.45;;;11.60;99.90;;;;;;4994904;28;20026;-74
2023/01/02 10:16:45;;;;;;;58.83;41.00;;;11.50;99.90;;;;;;4998932;28;20474;-74
2023/01/02 10:19:22;;;;;;;55.40;39.80;;;11.50;99.90;;;;;;5004920;28;20462;-73
2023/01/02 10:21:52;;;;;;;55.05;41.00;;;11.60;99.90;;;;;;5002152;28;20046;-73
2023/01/02 10:24:40;;;;;;;56.38;38.17;;;11.70;99.90;;;;;;5000608;28;20374;-73
2023/01/02 10:27:12;;;;;;;55.17;41.30;;;11.80;99.90;;;;;;4922772;29;20419;-73
2023/01/02 10:29:44;;;;;;;58.93;42.83;;;11.80;99.90;;;;;;4938923;29;20032;-74
2023/01/02 10:32:17;;;;;;;90.72;67.47;;;12.00;99.90;;;;;;4943967;29;20039;-74
2023/01/02 10:35:28;;;;;;;74.47;52.60;;;12.00;99.90;;;;;;4946401;29;20695;-73
2023/01/02 10:37:55;;;;;;;69.10;48.03;;;12.00;99.90;;;;;;4916680;29;20476;-74
2023/01/02 10:40:22;;;;;;;48.22;34.80;;;12.00;99.90;;;;;;4916548;29;20024;-74
2023/01/02 10:42:53;;;;;;;58.33;41.58;;;12.00;99.90;;;;;;4916358;29;20048;-73
2023/01/02 10:45:18;;;;;;;47.65;34.97;;;12.00;99.90;;;;;;4916789;29;20043;-73
2023/01/02 10:47:45;;;;;;;45.60;34.38;;;12.20;99.90;;;;;;4916510;29;20032;-73
2023/01/02 10:50:24;;;;;;;41.58;27.98;;;12.30;99.90;;;;;;4916542;29;20042;-74
2023/01/02 10:53:19;;;;;;;28.35;18.63;;;12.10;99.90;;;;;;4915659;29;20151;-73
2023/01/02 10:55:45;;;;;;;26.85;17.80;;;12.10;99.90;;;;;;4907513;29;20036;-74
2023/01/02 10:58:31;;;;;;;24.70;17.42;;;12.20;99.90;;;;;;4920914;29;20047;-75
2023/01/02 11:01:17;;;;;;;30.70;20.33;;;12.30;99.90;;;;;;4916370;29;20040;-74
2023/01/02 11:03:48;;;;;;;27.63;19.33;;;12.50;99.90;;;;;;4931637;29;20059;-75
2023/01/02 11:06:23;;;;;;;29.17;19.38;;;12.60;99.90;;;;;;4951922;29;20054;-74
2023/01/02 11:08:57;;;;;;;29.45;20.77;;;12.70;99.90;;;;;;4980205;28;20164;-74
2023/01/02 11:11:23;;;;;;;29.25;20.20;;;12.80;99.90;;;;;;4989506;28;20031;-75
2023/01/02 11:13:53;;;;;;;26.88;19.85;;;12.90;99.90;;;;;;4994877;28;20014;-74
2023/01/02 11:16:20;;;;;;;29.55;19.63;;;13.00;99.90;;;;;;4995192;28;20034;-75
2023/01/02 11:18:58;;;;;;;29.15;19.25;;;13.10;99.90;;;;;;4995290;28;20065;-74
2023/01/02 11:21:37;;;;;;;30.30;20.67;;;13.20;99.90;;;;;;4994130;28;20065;-75
2023/01/02 11:24:18;;;;;;;49.58;24.60;;;13.40;99.90;;;;;;4995174;28;20026;-75
2023/01/02 11:26:47;;;;;;;33.88;25.27;;;13.50;99.90;;;;;;4995382;28;20030;-75
2023/01/02 11:29:27;;;;;;;37.92;26.70;;;13.50;99.90;;;;;;4994937;28;20027;-74
2023/01/02 11:31:57;;;;;;;47.97;32.53;;;13.50;99.90;;;;;;4994900;28;20027;-75
2023/01/02 11:34:33;;;;;;;55.22;40.10;;;13.60;99.90;;;;;;4994904;28;20034;-75
2023/01/02 11:37:12;;;;;;;76.10;55.17;;;13.60;99.90;;;;;;4995179;28;20874;-75
2023/01/02 11:39:39;;;;;;;55.20;38.35;;;13.70;99.90;;;;;;4994790;28;20027;-75
2023/01/02 11:45:10;;;;;;;40.65;28.08;;;13.80;99.90;;;;;;4984573;28;20398;-75
2023/01/02 11:47:54;;;;;;;44.80;31.35;;;13.80;99.90;;;;;;4994852;28;20537;-75
2023/01/02 11:50:23;;;;;;;53.35;31.23;;;13.90;99.90;;;;;;5005325;28;20030;-75
2023/01/02 11:53:06;;;;;;;34.97;26.23;;;13.90;99.90;;;;;;4994766;28;20031;-74
2023/01/02 11:55:33;;;;;;;;;;;14.00;99.90;;;;;;4995155;28;20044;-74
2023/01/02 11:58:11;;;;;;;50.53;35.83;;;14.10;99.90;;;;;;4992717;28;19905;-74
2023/01/02 12:00:40;;;;;;;56.00;36.55;;;14.20;99.90;;;;;;4988606;28;20394;-74
2023/01/02 12:03:15;;;;;;;52.70;39.15;;;14.30;99.90;;;;;;5003873;28;20041;-74
2023/01/02 12:06:14;;;;;;;83.43;57.33;;;14.30;99.90;;;;;;5002247;28;20022;-73
2023/01/02 12:08:43;;;;;;;57.17;39.83;;;14.30;99.90;;;;;;4998174;28;20026;-74
2023/01/02 12:11:30;;;;;;;33.70;22.67;;;14.30;99.90;;;;;;5004247;28;20021;-73
2023/01/02 12:13:56;;;;;;;27.95;18.77;;;14.30;99.90;;;;;;5009274;28;20417;-73
2023/01/02 12:17:07;;;;;;;29.60;17.50;;;14.40;99.90;;;;;;4981942;28;20062;-73
2023/01/02 12:20:18;;;;;;;28.65;18.75;;;14.50;99.90;;;;;;5003273;28;20445;-73
2023/01/02 12:23:03;;;;;;;27.42;18.50;;;14.60;99.90;;;;;;5003916;28;20087;-74
2023/01/02 12:25:46;;;;;;;28.95;18.42;;;14.60;99.90;;;;;;5002657;28;20477;-73
2023/01/02 12:28:51;;;;;;;27.35;20.05;;;14.60;99.90;;;;;;4994433;28;20030;-74
2023/01/02 12:31:22;;;;;;;26.35;18.90;;;14.70;99.90;;;;;;4996059;28;20046;-74
2023/01/02 12:34:18;;;;;;;26.80;17.70;;;14.60;99.90;;;;;;4973508;28;20094;-73
2023/01/02 12:37:04;;;;;;;25.08;15.85;;;14.70;99.90;;;;;;4973615;28;20501;-73
2023/01/02 12:39:49;;;;;;;24.15;15.10;;;14.70;99.90;;;;;;4973144;28;20039;-74
2023/01/02 12:42:38;;;;;;;21.67;15.07;;;14.70;99.90;;;;;;4974454;28;20042;-73
2023/01/02 12:45:32;;;;;;;29.05;19.00;;;14.70;99.90;;;;;;4974510;28;20031;-74
2023/01/02 12:48:22;;;;;;;26.90;18.42;;;14.70;99.90;;;;;;4989036;28;20470;-74
2023/01/02 12:51:15;;;;;;;27.80;19.63;;;14.80;99.90;;;;;;4990154;28;20508;-76
2023/01/02 12:53:59;;;;;;;;;;;14.90;99.90;;;;;;4933959;29;20058;-75
2023/01/02 12:56:50;;;;;;;34.88;23.20;;;14.90;99.90;;;;;;4929458;29;19970;-74